Madsen Beach, South Dakota
Current Conditions -  °F | °C
As of 1:33 AM on Saturday 25 Oct 2014 (Local Time) from KVVV Reporting Station
Broken Clouds Broken Clouds  
Wind Chill: 57°   Ceiling: 12000
Heat Index: 57°   Visibility: 10mi
Dew Point: 36°   Wind: 9mph
Humidity: 44%   Direction: 300°WNW
Pressure: 30.01"   Gusts: NA
Location:  45.4152°N, 96.8664°W
Report Text: KVVV 250633Z AUTO 30008KT 10SM BKN120 14/02 A3001 RMK AO2
Loading
Personal Weather Stations






























Interactive Weather Map
Tropical Storm Tracking
New forecast layout! Learn more

10-Day Weather Forecast

Advertisements
Track Severe Weather on mobile